sensor_id;sensor_type;location;lat;lon;timestamp;P1;durP1;ratioP1;P2;durP2;ratioP2
15482;SDS011;7843;50.330;7.312;2023-09-08T00:00:51;6.13;;;3.17;;
15482;SDS011;7843;50.330;7.312;2023-09-08T00:03:18;3.97;;;2.40;;
15482;SDS011;7843;50.330;7.312;2023-09-08T00:05:45;3.67;;;2.58;;
15482;SDS011;7843;50.330;7.312;2023-09-08T00:08:11;2.47;;;1.93;;
15482;SDS011;7843;50.330;7.312;2023-09-08T00:10:38;4.90;;;2.08;;
15482;SDS011;7843;50.330;7.312;2023-09-08T00:13:05;3.95;;;2.42;;
15482;SDS011;7843;50.330;7.312;2023-09-08T00:15:33;3.58;;;2.53;;
15482;SDS011;7843;50.330;7.312;2023-09-08T00:18:01;6.22;;;2.85;;
15482;SDS011;7843;50.330;7.312;2023-09-08T00:20:28;3.67;;;2.25;;
15482;SDS011;7843;50.330;7.312;2023-09-08T00:22:54;3.63;;;2.60;;
15482;SDS011;7843;50.330;7.312;2023-09-08T00:25:21;3.80;;;2.43;;
15482;SDS011;7843;50.330;7.312;2023-09-08T00:27:48;5.35;;;2.80;;
15482;SDS011;7843;50.330;7.312;2023-09-08T00:30:14;4.25;;;2.45;;
15482;SDS011;7843;50.330;7.312;2023-09-08T00:32:41;4.03;;;2.63;;
15482;SDS011;7843;50.330;7.312;2023-09-08T00:35:10;4.50;;;2.47;;
15482;SDS011;7843;50.330;7.312;2023-09-08T00:37:37;3.33;;;2.58;;
15482;SDS011;7843;50.330;7.312;2023-09-08T00:40:05;4.13;;;2.70;;
15482;SDS011;7843;50.330;7.312;2023-09-08T00:42:34;4.13;;;2.60;;
15482;SDS011;7843;50.330;7.312;2023-09-08T00:45:01;3.08;;;2.20;;
15482;SDS011;7843;50.330;7.312;2023-09-08T00:47:28;4.05;;;2.85;;
15482;SDS011;7843;50.330;7.312;2023-09-08T00:49:55;3.92;;;2.05;;
15482;SDS011;7843;50.330;7.312;2023-09-08T00:52:21;3.85;;;2.58;;
15482;SDS011;7843;50.330;7.312;2023-09-08T00:54:48;3.72;;;2.42;;
15482;SDS011;7843;50.330;7.312;2023-09-08T00:57:15;4.17;;;2.50;;
15482;SDS011;7843;50.330;7.312;2023-09-08T00:59:42;3.95;;;2.38;;
15482;SDS011;7843;50.330;7.312;2023-09-08T01:02:10;3.70;;;2.55;;
15482;SDS011;7843;50.330;7.312;2023-09-08T01:04:37;4.17;;;2.50;;
15482;SDS011;7843;50.330;7.312;2023-09-08T01:07:07;6.45;;;2.90;;
15482;SDS011;7843;50.330;7.312;2023-09-08T01:09:35;3.58;;;2.40;;
15482;SDS011;7843;50.330;7.312;2023-09-08T01:12:03;3.90;;;2.38;;
15482;SDS011;7843;50.330;7.312;2023-09-08T01:14:31;5.82;;;3.10;;
15482;SDS011;7843;50.330;7.312;2023-09-08T01:16:58;3.60;;;2.42;;
15482;SDS011;7843;50.330;7.312;2023-09-08T01:19:25;4.10;;;2.65;;
15482;SDS011;7843;50.330;7.312;2023-09-08T01:26:51;4.45;;;2.70;;
15482;SDS011;7843;50.330;7.312;2023-09-08T01:29:19;4.35;;;2.95;;
15482;SDS011;7843;50.330;7.312;2023-09-08T01:31:49;4.35;;;2.55;;
15482;SDS011;7843;50.330;7.312;2023-09-08T01:34:17;2.88;;;1.77;;
15482;SDS011;7843;50.330;7.312;2023-09-08T01:36:45;5.43;;;2.85;;
15482;SDS011;7843;50.330;7.312;2023-09-08T01:39:12;4.05;;;2.47;;
15482;SDS011;7843;50.330;7.312;2023-09-08T01:41:38;4.25;;;2.47;;
15482;SDS011;7843;50.330;7.312;2023-09-08T01:44:05;5.78;;;2.92;;
15482;SDS011;7843;50.330;7.312;2023-09-08T01:46:36;4.72;;;2.45;;
15482;SDS011;7843;50.330;7.312;2023-09-08T01:49:03;3.72;;;2.35;;
15482;SDS011;7843;50.330;7.312;2023-09-08T01:51:29;5.10;;;2.45;;
15482;SDS011;7843;50.330;7.312;2023-09-08T01:53:56;5.63;;;2.42;;
15482;SDS011;7843;50.330;7.312;2023-09-08T01:56:23;3.67;;;2.35;;
15482;SDS011;7843;50.330;7.312;2023-09-08T01:58:51;4.63;;;2.37;;
15482;SDS011;7843;50.330;7.312;2023-09-08T02:01:18;5.50;;;2.92;;
15482;SDS011;7843;50.330;7.312;2023-09-08T02:03:45;4.05;;;2.20;;
15482;SDS011;7843;50.330;7.312;2023-09-08T02:06:11;3.95;;;2.38;;
15482;SDS011;7843;50.330;7.312;2023-09-08T02:08:38;3.55;;;2.47;;
15482;SDS011;7843;50.330;7.312;2023-09-08T02:11:05;3.45;;;2.38;;
15482;SDS011;7843;50.330;7.312;2023-09-08T02:13:31;3.13;;;2.38;;
15482;SDS011;7843;50.330;7.312;2023-09-08T02:15:58;4.15;;;2.20;;
15482;SDS011;7843;50.330;7.312;2023-09-08T02:18:25;4.32;;;2.63;;
15482;SDS011;7843;50.330;7.312;2023-09-08T02:20:52;3.60;;;2.67;;
15482;SDS011;7843;50.330;7.312;2023-09-08T02:23:19;4.95;;;2.67;;
15482;SDS011;7843;50.330;7.312;2023-09-08T02:25:45;5.17;;;3.00;;
15482;SDS011;7843;50.330;7.312;2023-09-08T02:28:13;4.07;;;2.85;;
15482;SDS011;7843;50.330;7.312;2023-09-08T02:30:39;5.35;;;3.00;;
15482;SDS011;7843;50.330;7.312;2023-09-08T02:33:06;4.43;;;2.58;;
15482;SDS011;7843;50.330;7.312;2023-09-08T02:35:35;3.80;;;2.30;;
15482;SDS011;7843;50.330;7.312;2023-09-08T02:38:04;3.53;;;2.08;;
15482;SDS011;7843;50.330;7.312;2023-09-08T02:40:32;5.35;;;2.33;;
15482;SDS011;7843;50.330;7.312;2023-09-08T02:43:00;4.05;;;2.25;;
15482;SDS011;7843;50.330;7.312;2023-09-08T02:45:40;3.63;;;2.38;;
15482;SDS011;7843;50.330;7.312;2023-09-08T02:48:07;4.57;;;2.47;;
15482;SDS011;7843;50.330;7.312;2023-09-08T02:50:34;2.78;;;2.20;;
15482;SDS011;7843;50.330;7.312;2023-09-08T02:53:01;6.32;;;2.85;;
15482;SDS011;7843;50.330;7.312;2023-09-08T02:55:27;3.38;;;2.30;;
15482;SDS011;7843;50.330;7.312;2023-09-08T02:57:54;5.03;;;2.55;;
15482;SDS011;7843;50.330;7.312;2023-09-08T03:00:22;3.60;;;2.03;;
15482;SDS011;7843;50.330;7.312;2023-09-08T03:02:48;4.15;;;2.55;;
15482;SDS011;7843;50.330;7.312;2023-09-08T03:05:15;5.00;;;2.58;;
15482;SDS011;7843;50.330;7.312;2023-09-08T03:07:42;4.90;;;2.72;;
15482;SDS011;7843;50.330;7.312;2023-09-08T03:10:09;5.95;;;2.15;;
15482;SDS011;7843;50.330;7.312;2023-09-08T03:12:36;3.67;;;2.53;;
15482;SDS011;7843;50.330;7.312;2023-09-08T03:15:04;4.15;;;2.15;;
15482;SDS011;7843;50.330;7.312;2023-09-08T03:17:31;4.30;;;2.67;;
15482;SDS011;7843;50.330;7.312;2023-09-08T03:19:58;4.35;;;2.60;;
15482;SDS011;7843;50.330;7.312;2023-09-08T03:22:24;4.55;;;2.65;;
15482;SDS011;7843;50.330;7.312;2023-09-08T03:24:53;5.13;;;2.67;;
15482;SDS011;7843;50.330;7.312;2023-09-08T03:27:20;3.65;;;2.30;;
15482;SDS011;7843;50.330;7.312;2023-09-08T03:29:46;3.85;;;2.80;;
15482;SDS011;7843;50.330;7.312;2023-09-08T03:32:13;4.32;;;2.30;;
15482;SDS011;7843;50.330;7.312;2023-09-08T03:34:40;4.00;;;2.50;;
15482;SDS011;7843;50.330;7.312;2023-09-08T03:37:07;3.30;;;2.30;;
15482;SDS011;7843;50.330;7.312;2023-09-08T03:39:33;4.25;;;2.78;;
15482;SDS011;7843;50.330;7.312;2023-09-08T03:42:01;6.80;;;2.40;;
15482;SDS011;7843;50.330;7.312;2023-09-08T03:44:28;3.65;;;2.53;;
15482;SDS011;7843;50.330;7.312;2023-09-08T03:46:54;4.88;;;2.47;;
15482;SDS011;7843;50.330;7.312;2023-09-08T03:49:21;3.65;;;2.58;;
15482;SDS011;7843;50.330;7.312;2023-09-08T03:51:48;4.28;;;2.65;;
15482;SDS011;7843;50.330;7.312;2023-09-08T03:54:14;5.10;;;2.75;;
15482;SDS011;7843;50.330;7.312;2023-09-08T03:56:41;4.38;;;2.60;;
15482;SDS011;7843;50.330;7.312;2023-09-08T03:59:08;3.17;;;2.25;;
15482;SDS011;7843;50.330;7.312;2023-09-08T04:01:34;4.97;;;2.83;;
15482;SDS011;7843;50.330;7.312;2023-09-08T04:04:02;5.05;;;2.13;;
15482;SDS011;7843;50.330;7.312;2023-09-08T04:06:29;6.50;;;2.15;;
15482;SDS011;7843;50.330;7.312;2023-09-08T04:08:55;4.60;;;2.40;;
15482;SDS011;7843;50.330;7.312;2023-09-08T04:11:22;4.22;;;2.80;;
15482;SDS011;7843;50.330;7.312;2023-09-08T04:13:49;3.35;;;2.05;;
15482;SDS011;7843;50.330;7.312;2023-09-08T04:16:15;4.63;;;2.50;;
15482;SDS011;7843;50.330;7.312;2023-09-08T04:18:42;3.67;;;2.27;;
15482;SDS011;7843;50.330;7.312;2023-09-08T04:21:09;3.65;;;2.20;;
15482;SDS011;7843;50.330;7.312;2023-09-08T04:23:39;5.75;;;2.40;;
15482;SDS011;7843;50.330;7.312;2023-09-08T04:26:05;4.72;;;2.55;;
15482;SDS011;7843;50.330;7.312;2023-09-08T04:28:32;3.03;;;2.20;;
15482;SDS011;7843;50.330;7.312;2023-09-08T04:30:59;5.38;;;2.60;;
15482;SDS011;7843;50.330;7.312;2023-09-08T04:33:25;3.92;;;2.58;;
15482;SDS011;7843;50.330;7.312;2023-09-08T04:35:52;3.85;;;2.33;;
15482;SDS011;7843;50.330;7.312;2023-09-08T04:38:19;4.90;;;2.58;;
15482;SDS011;7843;50.330;7.312;2023-09-08T04:40:45;3.92;;;2.50;;
15482;SDS011;7843;50.330;7.312;2023-09-08T04:43:12;4.37;;;2.67;;
15482;SDS011;7843;50.330;7.312;2023-09-08T04:45:39;5.55;;;2.47;;
15482;SDS011;7843;50.330;7.312;2023-09-08T04:48:06;6.65;;;2.90;;
15482;SDS011;7843;50.330;7.312;2023-09-08T04:50:33;5.90;;;2.65;;
15482;SDS011;7843;50.330;7.312;2023-09-08T04:53:00;5.32;;;3.25;;
15482;SDS011;7843;50.330;7.312;2023-09-08T04:55:27;3.72;;;2.58;;
15482;SDS011;7843;50.330;7.312;2023-09-08T04:57:55;3.20;;;2.22;;
15482;SDS011;7843;50.330;7.312;2023-09-08T05:00:21;4.80;;;2.60;;
15482;SDS011;7843;50.330;7.312;2023-09-08T05:02:48;5.43;;;3.05;;
15482;SDS011;7843;50.330;7.312;2023-09-08T05:05:15;8.75;;;2.97;;
15482;SDS011;7843;50.330;7.312;2023-09-08T05:07:41;4.20;;;2.65;;
15482;SDS011;7843;50.330;7.312;2023-09-08T05:10:08;3.90;;;2.65;;
15482;SDS011;7843;50.330;7.312;2023-09-08T05:12:35;3.83;;;2.67;;
15482;SDS011;7843;50.330;7.312;2023-09-08T05:15:02;8.38;;;2.75;;
15482;SDS011;7843;50.330;7.312;2023-09-08T05:17:36;6.93;;;3.13;;
15482;SDS011;7843;50.330;7.312;2023-09-08T05:20:03;3.73;;;2.50;;
15482;SDS011;7843;50.330;7.312;2023-09-08T05:22:30;5.13;;;2.75;;
15482;SDS011;7843;50.330;7.312;2023-09-08T05:24:56;4.30;;;2.70;;
15482;SDS011;7843;50.330;7.312;2023-09-08T05:27:23;5.25;;;2.35;;
15482;SDS011;7843;50.330;7.312;2023-09-08T05:29:50;4.78;;;2.65;;
15482;SDS011;7843;50.330;7.312;2023-09-08T05:32:17;4.18;;;2.70;;
15482;SDS011;7843;50.330;7.312;2023-09-08T05:34:43;5.20;;;2.70;;
15482;SDS011;7843;50.330;7.312;2023-09-08T05:37:10;6.27;;;2.93;;
15482;SDS011;7843;50.330;7.312;2023-09-08T05:39:37;5.00;;;2.55;;
15482;SDS011;7843;50.330;7.312;2023-09-08T05:42:04;5.03;;;3.03;;
15482;SDS011;7843;50.330;7.312;2023-09-08T05:44:30;4.78;;;2.88;;
15482;SDS011;7843;50.330;7.312;2023-09-08T05:46:57;3.80;;;2.38;;
15482;SDS011;7843;50.330;7.312;2023-09-08T05:49:24;6.80;;;3.13;;
15482;SDS011;7843;50.330;7.312;2023-09-08T05:51:51;4.50;;;2.60;;
15482;SDS011;7843;50.330;7.312;2023-09-08T05:54:18;3.90;;;2.50;;
15482;SDS011;7843;50.330;7.312;2023-09-08T05:56:45;4.03;;;2.75;;
15482;SDS011;7843;50.330;7.312;2023-09-08T05:59:11;4.68;;;2.97;;
15482;SDS011;7843;50.330;7.312;2023-09-08T06:01:38;7.10;;;2.95;;
15482;SDS011;7843;50.330;7.312;2023-09-08T06:04:05;4.68;;;2.85;;
15482;SDS011;7843;50.330;7.312;2023-09-08T06:06:32;3.60;;;2.78;;
15482;SDS011;7843;50.330;7.312;2023-09-08T06:08:59;6.28;;;3.00;;
15482;SDS011;7843;50.330;7.312;2023-09-08T06:11:25;4.03;;;2.90;;
15482;SDS011;7843;50.330;7.312;2023-09-08T06:13:52;3.92;;;2.85;;
15482;SDS011;7843;50.330;7.312;2023-09-08T06:16:25;4.05;;;2.55;;
15482;SDS011;7843;50.330;7.312;2023-09-08T06:18:52;4.65;;;2.90;;
15482;SDS011;7843;50.330;7.312;2023-09-08T06:21:22;5.45;;;3.30;;
15482;SDS011;7843;50.330;7.312;2023-09-08T06:23:49;5.07;;;2.95;;
15482;SDS011;7843;50.330;7.312;2023-09-08T06:26:15;5.33;;;2.97;;
15482;SDS011;7843;50.330;7.312;2023-09-08T06:28:42;5.03;;;3.20;;
15482;SDS011;7843;50.330;7.312;2023-09-08T06:31:10;4.93;;;3.03;;
15482;SDS011;7843;50.330;7.312;2023-09-08T06:33:37;5.22;;;3.22;;
15482;SDS011;7843;50.330;7.312;2023-09-08T06:36:03;5.15;;;3.22;;
15482;SDS011;7843;50.330;7.312;2023-09-08T06:38:30;4.03;;;2.92;;
15482;SDS011;7843;50.330;7.312;2023-09-08T06:40:57;6.00;;;3.70;;
15482;SDS011;7843;50.330;7.312;2023-09-08T06:43:24;5.53;;;3.50;;
15482;SDS011;7843;50.330;7.312;2023-09-08T06:45:51;4.30;;;3.15;;
15482;SDS011;7843;50.330;7.312;2023-09-08T06:48:17;5.50;;;3.33;;
15482;SDS011;7843;50.330;7.312;2023-09-08T06:50:44;5.53;;;3.25;;
15482;SDS011;7843;50.330;7.312;2023-09-08T06:53:11;4.20;;;3.00;;
15482;SDS011;7843;50.330;7.312;2023-09-08T06:55:38;5.63;;;3.45;;
15482;SDS011;7843;50.330;7.312;2023-09-08T06:58:06;6.80;;;3.13;;
15482;SDS011;7843;50.330;7.312;2023-09-08T07:00:33;7.80;;;3.58;;
15482;SDS011;7843;50.330;7.312;2023-09-08T07:02:59;6.07;;;3.67;;
15482;SDS011;7843;50.330;7.312;2023-09-08T07:05:28;6.60;;;4.43;;
15482;SDS011;7843;50.330;7.312;2023-09-08T07:07:55;6.68;;;3.88;;
15482;SDS011;7843;50.330;7.312;2023-09-08T07:10:21;5.85;;;3.80;;
15482;SDS011;7843;50.330;7.312;2023-09-08T07:12:48;5.83;;;3.70;;
15482;SDS011;7843;50.330;7.312;2023-09-08T07:15:15;6.95;;;3.80;;
15482;SDS011;7843;50.330;7.312;2023-09-08T07:17:42;6.10;;;4.15;;
15482;SDS011;7843;50.330;7.312;2023-09-08T07:20:09;6.40;;;4.07;;
15482;SDS011;7843;50.330;7.312;2023-09-08T07:22:36;8.57;;;3.90;;
15482;SDS011;7843;50.330;7.312;2023-09-08T07:25:03;7.97;;;3.58;;
15482;SDS011;7843;50.330;7.312;2023-09-08T07:27:30;6.07;;;3.70;;
15482;SDS011;7843;50.330;7.312;2023-09-08T07:29:56;5.20;;;2.97;;
15482;SDS011;7843;50.330;7.312;2023-09-08T07:32:24;4.35;;;3.08;;
15482;SDS011;7843;50.330;7.312;2023-09-08T07:34:51;5.65;;;3.35;;
15482;SDS011;7843;50.330;7.312;2023-09-08T07:37:21;3.45;;;2.40;;
15482;SDS011;7843;50.330;7.312;2023-09-08T07:39:49;6.83;;;3.50;;
15482;SDS011;7843;50.330;7.312;2023-09-08T07:42:16;4.00;;;2.60;;
15482;SDS011;7843;50.330;7.312;2023-09-08T07:44:44;7.55;;;2.88;;
15482;SDS011;7843;50.330;7.312;2023-09-08T07:47:11;4.80;;;2.90;;
15482;SDS011;7843;50.330;7.312;2023-09-08T07:49:38;6.90;;;2.90;;
15482;SDS011;7843;50.330;7.312;2023-09-08T07:52:05;5.28;;;3.35;;
15482;SDS011;7843;50.330;7.312;2023-09-08T07:54:33;6.53;;;3.13;;
15482;SDS011;7843;50.330;7.312;2023-09-08T07:57:00;4.03;;;3.00;;
15482;SDS011;7843;50.330;7.312;2023-09-08T07:59:26;6.65;;;3.33;;
15482;SDS011;7843;50.330;7.312;2023-09-08T08:01:53;6.05;;;3.78;;
15482;SDS011;7843;50.330;7.312;2023-09-08T08:04:20;5.07;;;3.00;;
15482;SDS011;7843;50.330;7.312;2023-09-08T08:06:47;3.88;;;2.92;;
15482;SDS011;7843;50.330;7.312;2023-09-08T08:09:15;5.20;;;3.20;;
15482;SDS011;7843;50.330;7.312;2023-09-08T08:11:42;7.32;;;3.25;;
15482;SDS011;7843;50.330;7.312;2023-09-08T08:14:08;4.75;;;3.00;;
15482;SDS011;7843;50.330;7.312;2023-09-08T08:16:35;5.07;;;3.20;;
15482;SDS011;7843;50.330;7.312;2023-09-08T08:19:02;4.35;;;2.83;;
15482;SDS011;7843;50.330;7.312;2023-09-08T08:21:29;4.68;;;3.03;;
15482;SDS011;7843;50.330;7.312;2023-09-08T08:23:56;7.65;;;2.97;;
15482;SDS011;7843;50.330;7.312;2023-09-08T08:26:22;5.47;;;2.85;;
15482;SDS011;7843;50.330;7.312;2023-09-08T08:28:53;4.60;;;2.88;;
15482;SDS011;7843;50.330;7.312;2023-09-08T08:31:20;4.43;;;2.92;;
15482;SDS011;7843;50.330;7.312;2023-09-08T08:33:47;5.50;;;3.00;;
15482;SDS011;7843;50.330;7.312;2023-09-08T08:36:13;3.20;;;2.17;;
15482;SDS011;7843;50.330;7.312;2023-09-08T08:38:41;4.60;;;2.60;;
15482;SDS011;7843;50.330;7.312;2023-09-08T08:41:08;3.90;;;2.55;;
15482;SDS011;7843;50.330;7.312;2023-09-08T08:43:34;4.43;;;2.75;;
15482;SDS011;7843;50.330;7.312;2023-09-08T08:46:01;3.10;;;2.10;;
15482;SDS011;7843;50.330;7.312;2023-09-08T08:48:29;4.40;;;2.63;;
15482;SDS011;7843;50.330;7.312;2023-09-08T08:50:57;3.88;;;2.40;;
15482;SDS011;7843;50.330;7.312;2023-09-08T08:53:26;3.17;;;2.25;;
15482;SDS011;7843;50.330;7.312;2023-09-08T08:55:55;4.77;;;2.30;;
15482;SDS011;7843;50.330;7.312;2023-09-08T08:58:24;4.90;;;2.90;;
15482;SDS011;7843;50.330;7.312;2023-09-08T09:00:53;4.03;;;2.08;;
15482;SDS011;7843;50.330;7.312;2023-09-08T09:03:24;3.88;;;2.40;;
15482;SDS011;7843;50.330;7.312;2023-09-08T09:05:53;3.63;;;2.20;;
15482;SDS011;7843;50.330;7.312;2023-09-08T09:08:20;5.20;;;2.27;;
15482;SDS011;7843;50.330;7.312;2023-09-08T09:10:50;2.88;;;2.05;;
15482;SDS011;7843;50.330;7.312;2023-09-08T09:13:18;3.78;;;2.50;;
15482;SDS011;7843;50.330;7.312;2023-09-08T09:15:45;3.50;;;1.85;;
15482;SDS011;7843;50.330;7.312;2023-09-08T09:18:13;3.17;;;2.08;;
15482;SDS011;7843;50.330;7.312;2023-09-08T09:20:40;4.00;;;2.28;;
15482;SDS011;7843;50.330;7.312;2023-09-08T09:23:07;3.03;;;2.00;;
15482;SDS011;7843;50.330;7.312;2023-09-08T09:25:34;4.78;;;2.33;;
15482;SDS011;7843;50.330;7.312;2023-09-08T09:28:02;3.58;;;2.05;;
15482;SDS011;7843;50.330;7.312;2023-09-08T09:30:52;4.60;;;2.50;;
15482;SDS011;7843;50.330;7.312;2023-09-08T09:33:18;3.15;;;2.17;;
15482;SDS011;7843;50.330;7.312;2023-09-08T09:35:46;4.25;;;2.10;;
15482;SDS011;7843;50.330;7.312;2023-09-08T09:38:14;2.58;;;1.73;;
15482;SDS011;7843;50.330;7.312;2023-09-08T09:40:41;3.53;;;2.10;;
15482;SDS011;7843;50.330;7.312;2023-09-08T09:43:08;2.95;;;2.25;;
15482;SDS011;7843;50.330;7.312;2023-09-08T09:45:38;4.00;;;2.20;;
15482;SDS011;7843;50.330;7.312;2023-09-08T09:48:06;3.45;;;2.20;;
15482;SDS011;7843;50.330;7.312;2023-09-08T09:50:34;10.50;;;2.47;;
15482;SDS011;7843;50.330;7.312;2023-09-08T09:55:37;3.17;;;2.17;;
15482;SDS011;7843;50.330;7.312;2023-09-08T09:58:05;3.15;;;1.80;;
15482;SDS011;7843;50.330;7.312;2023-09-08T10:00:33;4.10;;;1.98;;
15482;SDS011;7843;50.330;7.312;2023-09-08T10:03:01;3.70;;;1.97;;
15482;SDS011;7843;50.330;7.312;2023-09-08T10:05:32;4.03;;;1.98;;
15482;SDS011;7843;50.330;7.312;2023-09-08T10:08:00;3.35;;;1.90;;
15482;SDS011;7843;50.330;7.312;2023-09-08T10:10:27;3.00;;;1.83;;
15482;SDS011;7843;50.330;7.312;2023-09-08T10:12:57;3.65;;;2.10;;
15482;SDS011;7843;50.330;7.312;2023-09-08T10:15:29;4.15;;;2.35;;
15482;SDS011;7843;50.330;7.312;2023-09-08T10:17:57;2.38;;;1.80;;
15482;SDS011;7843;50.330;7.312;2023-09-08T10:20:26;3.20;;;1.92;;
15482;SDS011;7843;50.330;7.312;2023-09-08T10:23:02;3.67;;;1.98;;
15482;SDS011;7843;50.330;7.312;2023-09-08T10:25:46;2.53;;;1.83;;
15482;SDS011;7843;50.330;7.312;2023-09-08T10:28:21;2.77;;;1.83;;
15482;SDS011;7843;50.330;7.312;2023-09-08T10:30:48;3.78;;;1.92;;
15482;SDS011;7843;50.330;7.312;2023-09-08T10:33:16;2.97;;;1.73;;
15482;SDS011;7843;50.330;7.312;2023-09-08T10:35:44;3.33;;;2.00;;
15482;SDS011;7843;50.330;7.312;2023-09-08T10:41:25;2.80;;;1.77;;
15482;SDS011;7843;50.330;7.312;2023-09-08T10:43:44;3.67;;;2.00;;
15482;SDS011;7843;50.330;7.312;2023-09-08T10:46:24;3.13;;;1.70;;
15482;SDS011;7843;50.330;7.312;2023-09-08T10:48:53;2.40;;;1.85;;
15482;SDS011;7843;50.330;7.312;2023-09-08T10:51:21;2.15;;;1.58;;
15482;SDS011;7843;50.330;7.312;2023-09-08T10:53:50;3.25;;;2.05;;
15482;SDS011;7843;50.330;7.312;2023-09-08T10:56:17;3.25;;;1.85;;
15482;SDS011;7843;50.330;7.312;2023-09-08T10:58:48;4.82;;;2.10;;
15482;SDS011;7843;50.330;7.312;2023-09-08T11:01:17;3.00;;;1.73;;
15482;SDS011;7843;50.330;7.312;2023-09-08T11:03:48;2.13;;;1.52;;
15482;SDS011;7843;50.330;7.312;2023-09-08T11:06:17;3.97;;;2.00;;
15482;SDS011;7843;50.330;7.312;2023-09-08T11:08:45;2.10;;;1.60;;
15482;SDS011;7843;50.330;7.312;2023-09-08T11:11:13;2.50;;;1.70;;
15482;SDS011;7843;50.330;7.312;2023-09-08T11:13:40;2.58;;;1.60;;
15482;SDS011;7843;50.330;7.312;2023-09-08T11:16:08;3.08;;;1.73;;
15482;SDS011;7843;50.330;7.312;2023-09-08T11:18:34;3.55;;;1.98;;
15482;SDS011;7843;50.330;7.312;2023-09-08T11:21:02;2.85;;;2.00;;
15482;SDS011;7843;50.330;7.312;2023-09-08T11:23:33;2.85;;;1.60;;
15482;SDS011;7843;50.330;7.312;2023-09-08T11:26:00;2.80;;;1.70;;
15482;SDS011;7843;50.330;7.312;2023-09-08T11:28:28;3.20;;;1.88;;
15482;SDS011;7843;50.330;7.312;2023-09-08T11:30:55;2.53;;;1.60;;
15482;SDS011;7843;50.330;7.312;2023-09-08T11:33:23;4.15;;;2.33;;
15482;SDS011;7843;50.330;7.312;2023-09-08T11:35:53;3.20;;;1.88;;
15482;SDS011;7843;50.330;7.312;2023-09-08T11:38:25;4.47;;;1.55;;
15482;SDS011;7843;50.330;7.312;2023-09-08T11:40:56;1.95;;;1.42;;
15482;SDS011;7843;50.330;7.312;2023-09-08T11:43:27;7.50;;;2.05;;
15482;SDS011;7843;50.330;7.312;2023-09-08T11:45:54;2.78;;;1.83;;
15482;SDS011;7843;50.330;7.312;2023-09-08T11:48:24;2.53;;;1.73;;
15482;SDS011;7843;50.330;7.312;2023-09-08T11:50:54;3.27;;;2.00;;
15482;SDS011;7843;50.330;7.312;2023-09-08T11:53:21;2.22;;;1.83;;
15482;SDS011;7843;50.330;7.312;2023-09-08T11:55:49;2.55;;;2.00;;
15482;SDS011;7843;50.330;7.312;2023-09-08T11:58:17;3.53;;;1.93;;
15482;SDS011;7843;50.330;7.312;2023-09-08T12:00:45;2.58;;;1.63;;
15482;SDS011;7843;50.330;7.312;2023-09-08T12:03:14;3.15;;;1.80;;
15482;SDS011;7843;50.330;7.312;2023-09-08T12:05:43;3.27;;;1.80;;
15482;SDS011;7843;50.330;7.312;2023-09-08T12:08:16;2.67;;;1.75;;
15482;SDS011;7843;50.330;7.312;2023-09-08T12:10:43;2.22;;;1.77;;
15482;SDS011;7843;50.330;7.312;2023-09-08T12:13:10;2.22;;;1.60;;
15482;SDS011;7843;50.330;7.312;2023-09-08T12:15:37;2.10;;;1.50;;
15482;SDS011;7843;50.330;7.312;2023-09-08T12:18:08;1.90;;;1.42;;
15482;SDS011;7843;50.330;7.312;2023-09-08T12:20:39;2.30;;;1.63;;
15482;SDS011;7843;50.330;7.312;2023-09-08T12:23:15;2.65;;;1.63;;
15482;SDS011;7843;50.330;7.312;2023-09-08T12:25:50;3.88;;;1.52;;
15482;SDS011;7843;50.330;7.312;2023-09-08T12:28:19;2.20;;;1.63;;
15482;SDS011;7843;50.330;7.312;2023-09-08T12:30:47;2.08;;;1.50;;
15482;SDS011;7843;50.330;7.312;2023-09-08T12:33:15;2.25;;;1.63;;
15482;SDS011;7843;50.330;7.312;2023-09-08T12:35:46;1.90;;;1.30;;
15482;SDS011;7843;50.330;7.312;2023-09-08T12:38:17;3.20;;;1.60;;
15482;SDS011;7843;50.330;7.312;2023-09-08T12:40:44;2.60;;;1.77;;
15482;SDS011;7843;50.330;7.312;2023-09-08T12:43:11;2.17;;;1.33;;
15482;SDS011;7843;50.330;7.312;2023-09-08T12:45:38;2.25;;;1.27;;
15482;SDS011;7843;50.330;7.312;2023-09-08T12:48:05;2.78;;;1.85;;
15482;SDS011;7843;50.330;7.312;2023-09-08T12:50:33;2.55;;;1.73;;
15482;SDS011;7843;50.330;7.312;2023-09-08T12:52:59;2.15;;;1.80;;
15482;SDS011;7843;50.330;7.312;2023-09-08T12:55:26;1.80;;;1.40;;
15482;SDS011;7843;50.330;7.312;2023-09-08T12:57:53;2.53;;;1.80;;
15482;SDS011;7843;50.330;7.312;2023-09-08T13:00:21;2.15;;;1.60;;
15482;SDS011;7843;50.330;7.312;2023-09-08T13:02:51;2.10;;;1.23;;
15482;SDS011;7843;50.330;7.312;2023-09-08T13:05:18;2.13;;;1.50;;
15482;SDS011;7843;50.330;7.312;2023-09-08T13:07:45;1.67;;;1.45;;
15482;SDS011;7843;50.330;7.312;2023-09-08T13:10:12;3.30;;;1.67;;
15482;SDS011;7843;50.330;7.312;2023-09-08T13:12:38;2.55;;;1.63;;
15482;SDS011;7843;50.330;7.312;2023-09-08T13:15:05;2.60;;;1.38;;
15482;SDS011;7843;50.330;7.312;2023-09-08T13:17:32;1.95;;;1.48;;
15482;SDS011;7843;50.330;7.312;2023-09-08T13:19:59;2.65;;;1.42;;
15482;SDS011;7843;50.330;7.312;2023-09-08T13:22:26;2.67;;;1.50;;
15482;SDS011;7843;50.330;7.312;2023-09-08T13:24:52;3.17;;;1.63;;
15482;SDS011;7843;50.330;7.312;2023-09-08T13:27:19;1.88;;;1.40;;
15482;SDS011;7843;50.330;7.312;2023-09-08T13:29:46;1.95;;;1.50;;
15482;SDS011;7843;50.330;7.312;2023-09-08T13:32:13;2.92;;;1.63;;
15482;SDS011;7843;50.330;7.312;2023-09-08T13:34:39;2.30;;;1.60;;
15482;SDS011;7843;50.330;7.312;2023-09-08T13:37:06;2.03;;;1.58;;
15482;SDS011;7843;50.330;7.312;2023-09-08T13:39:34;2.00;;;1.40;;
15482;SDS011;7843;50.330;7.312;2023-09-08T13:42:01;2.00;;;1.70;;
15482;SDS011;7843;50.330;7.312;2023-09-08T13:44:28;2.38;;;1.70;;
15482;SDS011;7843;50.330;7.312;2023-09-08T13:46:55;2.20;;;1.50;;
15482;SDS011;7843;50.330;7.312;2023-09-08T13:49:22;2.10;;;1.50;;
15482;SDS011;7843;50.330;7.312;2023-09-08T13:51:51;4.63;;;1.70;;
15482;SDS011;7843;50.330;7.312;2023-09-08T13:54:21;1.85;;;1.48;;
15482;SDS011;7843;50.330;7.312;2023-09-08T13:56:57;2.67;;;1.77;;
15482;SDS011;7843;50.330;7.312;2023-09-08T13:59:28;2.23;;;1.50;;
15482;SDS011;7843;50.330;7.312;2023-09-08T14:02:00;1.85;;;1.50;;
15482;SDS011;7843;50.330;7.312;2023-09-08T14:04:44;2.08;;;1.60;;
15482;SDS011;7843;50.330;7.312;2023-09-08T14:07:13;4.82;;;1.75;;
15482;SDS011;7843;50.330;7.312;2023-09-08T14:09:42;2.03;;;1.50;;
15482;SDS011;7843;50.330;7.312;2023-09-08T14:12:17;1.70;;;1.33;;
15482;SDS011;7843;50.330;7.312;2023-09-08T14:14:47;1.80;;;1.58;;
15482;SDS011;7843;50.330;7.312;2023-09-08T14:17:14;2.10;;;1.60;;
15482;SDS011;7843;50.330;7.312;2023-09-08T14:19:41;4.30;;;1.60;;
15482;SDS011;7843;50.330;7.312;2023-09-08T14:22:07;2.10;;;1.42;;
15482;SDS011;7843;50.330;7.312;2023-09-08T14:24:34;3.08;;;1.58;;
15482;SDS011;7843;50.330;7.312;2023-09-08T14:27:01;2.50;;;1.50;;
15482;SDS011;7843;50.330;7.312;2023-09-08T14:29:28;2.40;;;1.75;;
15482;SDS011;7843;50.330;7.312;2023-09-08T14:31:54;2.92;;;1.50;;
15482;SDS011;7843;50.330;7.312;2023-09-08T14:34:21;1.92;;;1.38;;
15482;SDS011;7843;50.330;7.312;2023-09-08T14:36:48;2.43;;;1.57;;
15482;SDS011;7843;50.330;7.312;2023-09-08T14:39:14;2.08;;;1.35;;
15482;SDS011;7843;50.330;7.312;2023-09-08T14:41:46;1.38;;;1.13;;
15482;SDS011;7843;50.330;7.312;2023-09-08T14:44:14;1.95;;;1.65;;
15482;SDS011;7843;50.330;7.312;2023-09-08T14:46:40;2.80;;;1.45;;
15482;SDS011;7843;50.330;7.312;2023-09-08T14:49:07;2.42;;;1.40;;
15482;SDS011;7843;50.330;7.312;2023-09-08T14:51:34;5.47;;;2.00;;
15482;SDS011;7843;50.330;7.312;2023-09-08T14:54:00;2.53;;;1.52;;
15482;SDS011;7843;50.330;7.312;2023-09-08T14:56:27;2.15;;;1.50;;
15482;SDS011;7843;50.330;7.312;2023-09-08T14:58:54;2.00;;;1.45;;
15482;SDS011;7843;50.330;7.312;2023-09-08T15:01:20;5.18;;;1.38;;
15482;SDS011;7843;50.330;7.312;2023-09-08T15:03:47;7.13;;;2.00;;
15482;SDS011;7843;50.330;7.312;2023-09-08T15:06:14;1.80;;;1.50;;
15482;SDS011;7843;50.330;7.312;2023-09-08T15:08:41;2.80;;;1.90;;
15482;SDS011;7843;50.330;7.312;2023-09-08T15:11:09;6.47;;;1.95;;
15482;SDS011;7843;50.330;7.312;2023-09-08T15:13:35;3.38;;;1.80;;